Página principal
METAR-TAF:

METAR-TAF

Aeroportos :

Aeroporto Internacional de Wellington

Wellington, Nova Zelândia

latitude: 41-20S, longitude: 174-48E, altura: 12 m

Observação actual do tempo

O boletim foi feito há 23 minutos, às 17:00 UTC
Vento 8 kt de su-sudeste
Temperatura 16°C
Humidade 82%
Pressão 1027 hPa
Visibilidade 10 km ou mais

METAR: NZWN 201700Z AUTO 15008KT 9999 BKN028/// 16/13 Q1027 NOSIG

Hora: 06:23 (17:23 UTC)

Previsão

O boletim foi feito há 6 horas e 16 minutos, às 11:07 UTC
Previsão válida de 20 às 12 UTC a 21 às 12 UTC
Vento 5 kt de su-sudoeste
Visibilidade 10 km ou mais
Poucas nuvensa uma altura de 4000 ft
Tornando-se
de 21 às 02 UTC a 21 às 04 UTC
Vento 15 kt de su-sudeste
Tornando-se
de 21 às 07 UTC a 21 às 09 UTC
Vento 5 kt de nor-nordeste

TAF: NZWN 201107Z 2012/2112 20005KT 9999 FEW040 BECMG 2102/2104 15015KT BECMG 2107/2109 03005KT

Observações e previsões do tempo de mais de 4000 aeroportos (mensagens METAR e TAF).

As estações disponíveis são os pontos amarelos e vermelhos sobre o mapa.

Mova o rato sobre o mapa para ver o nome da estação.

Depois clique no ponto para visualizar as observações e previsões meteorológicas.

Para alterar o mapa : clique nos botões verdes com uma cruz preta para aumentar o zoom; no botão verde com uma pitada de zoom; ou nas setas verdes para mapas adjacentes.


METAR-TAF: